Time;durP1;ratioP1;P1;durP2;ratioP2;P2;SDS_P1;SDS_P2;PMS_P1;PMS_P2;Temp;Humidity;BMP_temperature;BMP_pressure;BME280_temperature;BME280_humidity;BME280_pressure;Samples;Min_cycle;Max_cycle;Signal;HPM_P1;HPM_P2
2024/01/23 00:01:49;;;;;;;4.55;0.82;;;7.50;99.90;;;;;;4969845;28;20069;-77
2024/01/23 00:04:19;;;;;;;3.90;0.80;;;7.60;99.90;;;;;;4987989;28;20022;-76
2024/01/23 00:06:57;;;;;;;4.20;0.70;;;7.50;99.90;;;;;;4987812;28;20030;-77
2024/01/23 00:09:27;;;;;;;2.50;0.70;;;7.60;99.90;;;;;;4986684;28;20241;-75
2024/01/23 00:12:00;;;;;;;2.28;0.60;;;7.70;99.90;;;;;;4986434;28;20052;-78
2024/01/23 00:14:32;;;;;;;4.07;0.90;;;7.70;99.90;;;;;;4969980;28;20102;-76
2024/01/23 00:17:01;;;;;;;2.45;0.52;;;7.70;99.90;;;;;;5003454;28;20041;-75
2024/01/23 00:19:27;;;;;;;3.83;0.60;;;7.70;99.90;;;;;;4970063;28;20030;-76
2024/01/23 00:21:56;;;;;;;3.03;0.52;;;7.70;99.90;;;;;;4970060;28;20018;-77
2024/01/23 00:24:31;;;;;;;4.15;0.40;;;7.70;99.90;;;;;;4968935;28;20066;-76
2024/01/23 00:26:59;;;;;;;2.47;0.60;;;7.60;99.90;;;;;;4983964;28;20039;-76
2024/01/23 00:29:25;;;;;;;3.03;0.60;;;7.60;99.90;;;;;;4983675;28;20039;-76
2024/01/23 00:31:54;;;;;;;2.78;0.50;;;7.60;99.90;;;;;;4982771;28;20074;-77
2024/01/23 00:34:19;;;;;;;;;;;7.60;99.90;;;;;;4984253;28;20030;-76
2024/01/23 00:36:51;;;;;;;3.42;0.80;;;7.60;99.90;;;;;;4982967;28;20185;-78
2024/01/23 00:42:11;;;;;;;4.68;0.82;;;7.40;99.90;;;;;;4983167;28;20042;-78
2024/01/23 00:44:37;;;;;;;;;;;7.30;99.90;;;;;;5002728;28;20259;-77
2024/01/23 00:47:05;;;;;;;4.22;0.77;;;7.20;99.90;;;;;;5002785;28;19901;-76
2024/01/23 00:49:34;;;;;;;3.25;0.68;;;7.30;99.90;;;;;;4984892;28;20055;-77
2024/01/23 00:52:00;;;;;;;3.67;0.65;;;7.30;99.90;;;;;;5003202;28;20038;-76
2024/01/23 00:54:34;;;;;;;3.92;0.77;;;7.30;99.90;;;;;;5003075;28;20030;-77
2024/01/23 00:57:12;;;;;;;4.05;0.60;;;7.40;99.90;;;;;;5002892;28;20224;-76
2024/01/23 00:59:44;;;;;;;2.78;0.73;;;7.40;99.90;;;;;;4985109;28;20026;-77
2024/01/23 01:02:15;;;;;;;3.38;0.55;;;7.40;99.90;;;;;;5002398;28;20217;-76
2024/01/23 01:04:47;;;;;;;6.10;0.63;;;7.40;99.90;;;;;;4966820;28;20066;-76
2024/01/23 01:07:19;;;;;;;6.95;1.05;;;7.40;99.90;;;;;;5002847;28;20153;-76
2024/01/23 01:09:45;;;;;;;3.60;0.63;;;7.40;99.90;;;;;;5002306;28;20313;-78
2024/01/23 01:12:23;;;;;;;4.95;0.88;;;7.50;99.90;;;;;;5001711;28;20018;-77
2024/01/23 01:14:51;;;;;;;4.47;0.70;;;7.50;99.90;;;;;;5002344;28;20277;-77
2024/01/23 01:17:46;;;;;;;;;;;7.50;99.90;;;;;;5002956;28;20053;-76
2024/01/23 01:20:52;;;;;;;;;;;;;;;;;;;;;
2024/01/23 01:23:57;;;;;;;7.43;1.05;;;6.90;99.90;;;;;;5002086;28;20065;-76
2024/01/23 01:26:48;;;;;;;2.72;0.60;;;6.70;99.90;;;;;;4969138;28;20101;-77
2024/01/23 01:29:39;;;;;;;3.28;0.70;;;6.60;99.90;;;;;;4926561;29;20056;-75
2024/01/23 01:32:05;;;;;;;5.93;0.93;;;6.70;99.90;;;;;;4926466;29;20042;-76
2024/01/23 01:34:31;;;;;;;4.32;0.60;;;6.70;99.90;;;;;;4942117;29;20087;-77
2024/01/23 01:37:00;;;;;;;5.32;0.60;;;6.70;99.90;;;;;;4945287;29;20024;-76
2024/01/23 01:39:38;;;;;;;5.65;0.77;;;6.60;99.90;;;;;;4945729;29;20421;-77
2024/01/23 01:42:09;;;;;;;6.47;0.80;;;6.50;99.90;;;;;;4946550;29;20102;-76
2024/01/23 01:44:41;;;;;;;5.30;0.82;;;6.50;99.90;;;;;;4945816;29;20438;-75
2024/01/23 01:47:10;;;;;;;3.72;1.30;;;6.40;99.90;;;;;;4972224;28;20166;-75
2024/01/23 01:49:42;;;;;;;4.60;0.63;;;6.50;99.90;;;;;;5005398;28;20106;-76
2024/01/23 01:52:19;;;;;;;8.70;0.93;;;6.50;99.90;;;;;;5005989;28;20374;-75
2024/01/23 01:54:51;;;;;;;6.90;1.05;;;6.50;99.90;;;;;;5005796;28;20026;-76
2024/01/23 01:57:21;;;;;;;6.65;0.90;;;6.50;99.90;;;;;;4985526;28;20041;-76
2024/01/23 01:59:48;;;;;;;4.78;1.40;;;6.40;99.90;;;;;;4987717;28;20386;-76
2024/01/23 02:02:22;;;;;;;4.95;0.70;;;6.40;99.90;;;;;;4989509;28;20101;-75
2024/01/23 02:04:48;;;;;;;5.03;0.90;;;6.40;99.90;;;;;;5005297;28;20046;-77
2024/01/23 02:07:17;;;;;;;8.32;0.90;;;6.30;99.90;;;;;;4972410;28;20032;-77
2024/01/23 02:09:43;;;;;;;4.45;0.98;;;6.30;99.90;;;;;;5005143;28;20072;-76
2024/01/23 02:12:09;;;;;;;11.23;1.20;;;6.30;99.90;;;;;;4987993;28;20023;-76
2024/01/23 02:14:42;;;;;;;4.55;0.82;;;6.30;99.90;;;;;;5005253;28;20026;-76
2024/01/23 02:17:07;;;;;;;8.18;1.10;;;6.30;99.90;;;;;;5004878;28;20017;-77
2024/01/23 02:19:33;;;;;;;5.03;0.80;;;6.30;99.90;;;;;;5004876;28;20053;-75
2024/01/23 02:22:16;;;;;;;6.60;1.00;;;6.30;99.90;;;;;;5005505;28;20030;-75
2024/01/23 02:24:48;;;;;;;8.15;0.85;;;6.40;99.90;;;;;;5004892;28;20093;-77
2024/01/23 02:27:23;;;;;;;9.20;1.55;;;6.40;99.90;;;;;;4988727;28;20053;-77
2024/01/23 02:29:53;;;;;;;6.15;0.73;;;6.50;99.90;;;;;;4985017;28;20384;-76
2024/01/23 02:32:25;;;;;;;3.90;0.90;;;6.60;99.90;;;;;;5005016;28;20076;-77
2024/01/23 02:34:53;;;;;;;4.07;0.98;;;6.60;99.90;;;;;;5003990;28;20046;-77
2024/01/23 02:37:47;;;;;;;7.13;1.00;;;6.60;99.90;;;;;;5005037;28;20042;-78
2024/01/23 02:40:31;;;;;;;6.82;1.00;;;6.50;99.90;;;;;;5004121;28;20274;-77
2024/01/23 02:42:57;;;;;;;8.60;1.30;;;6.40;99.90;;;;;;4987555;28;20379;-77
2024/01/23 02:45:23;;;;;;;7.50;1.10;;;6.30;99.90;;;;;;5004184;28;20026;-76
2024/01/23 02:47:49;;;;;;;7.00;1.00;;;6.30;99.90;;;;;;5003360;28;20207;-76
2024/01/23 02:50:28;;;;;;;10.70;1.50;;;6.30;99.90;;;;;;4971629;28;20023;-77
2024/01/23 02:52:59;;;;;;;6.80;1.25;;;6.30;99.90;;;;;;4988234;28;20038;-76
2024/01/23 02:55:33;;;;;;;5.20;1.08;;;6.40;99.90;;;;;;4988173;28;20353;-76
2024/01/23 02:58:21;;;;;;;11.07;1.20;;;6.40;99.90;;;;;;4971282;28;20037;-77
2024/01/23 03:00:56;;;;;;;6.55;1.42;;;6.50;99.90;;;;;;4987010;28;20046;-77
2024/01/23 03:03:27;;;;;;;5.65;1.20;;;6.60;99.90;;;;;;4983585;28;20113;-76
2024/01/23 03:05:55;;;;;;;7.35;1.20;;;6.60;99.90;;;;;;4982110;28;20038;-76
2024/01/23 03:08:22;;;;;;;7.93;1.00;;;6.70;99.90;;;;;;5004424;28;20030;-76
2024/01/23 03:10:49;;;;;;;5.88;1.60;;;6.80;99.90;;;;;;5003542;28;20042;-78
2024/01/23 03:13:15;;;;;;;10.05;1.05;;;6.80;99.90;;;;;;5004541;28;20030;-78
2024/01/23 03:15:49;;;;;;;5.82;1.52;;;6.90;99.90;;;;;;4987144;28;20042;-76
2024/01/23 03:18:17;;;;;;;10.00;1.35;;;6.90;99.90;;;;;;5004222;28;20084;-76
2024/01/23 03:20:46;;;;;;;9.95;1.33;;;7.00;99.90;;;;;;4986109;28;20053;-77
2024/01/23 03:23:16;;;;;;;10.50;1.35;;;7.00;99.90;;;;;;5004213;28;20081;-76
2024/01/23 03:25:42;;;;;;;7.90;1.55;;;7.00;99.90;;;;;;4986508;28;20081;-76
2024/01/23 03:28:11;;;;;;;14.20;1.70;;;7.00;99.90;;;;;;4970817;28;20033;-78
2024/01/23 03:30:57;;;;;;;11.07;1.88;;;7.10;99.90;;;;;;5003521;28;20034;-75
2024/01/23 03:33:29;;;;;;;6.70;1.40;;;7.10;99.90;;;;;;4975220;28;20042;-75
2024/01/23 03:36:01;;;;;;;5.97;1.10;;;7.20;99.90;;;;;;4986782;28;20057;-75
2024/01/23 03:38:26;;;;;;;11.43;1.50;;;7.20;99.90;;;;;;5003285;28;20217;-78
2024/01/23 03:41:17;;;;;;;6.65;1.92;;;7.20;99.90;;;;;;5002786;28;20045;-76
2024/01/23 03:43:46;;;;;;;9.98;1.35;;;7.30;99.90;;;;;;5003332;28;20034;-77
2024/01/23 03:46:11;;;;;;;11.88;1.42;;;7.30;99.90;;;;;;5003960;28;20080;-78
2024/01/23 03:48:37;;;;;;;8.77;1.48;;;7.30;99.90;;;;;;4986200;28;20233;-76
2024/01/23 03:51:12;;;;;;;9.82;1.20;;;7.30;99.90;;;;;;5003895;28;20042;-76
2024/01/23 03:54:05;;;;;;;12.18;1.40;;;7.30;99.90;;;;;;4969303;28;20038;-76
2024/01/23 03:57:07;;;;;;;11.27;2.15;;;7.30;99.90;;;;;;4972245;28;20050;-77
2024/01/23 03:59:37;;;;;;;12.80;1.58;;;7.30;99.90;;;;;;4985501;28;20077;-77
2024/01/23 04:02:03;;;;;;;10.02;1.45;;;7.30;99.90;;;;;;4970525;28;20245;-77
2024/01/23 04:04:36;;;;;;;9.27;1.70;;;7.40;99.90;;;;;;4969872;28;20031;-76
2024/01/23 04:07:05;;;;;;;12.15;1.73;;;7.40;99.90;;;;;;5003456;28;20025;-77
2024/01/23 04:09:36;;;;;;;9.30;1.50;;;7.40;99.90;;;;;;4985296;28;20049;-77
2024/01/23 04:12:01;;;;;;;11.55;1.58;;;7.40;99.90;;;;;;4986563;28;20102;-74
2024/01/23 04:14:33;;;;;;;14.45;2.20;;;7.50;99.90;;;;;;5002964;28;20022;-76
2024/01/23 04:17:20;;;;;;;11.38;1.52;;;7.50;99.90;;;;;;5003154;28;20088;-76
2024/01/23 04:19:49;;;;;;;10.35;1.90;;;7.50;99.90;;;;;;4986077;28;20030;-77
2024/01/23 04:22:19;;;;;;;9.73;1.27;;;7.50;99.90;;;;;;4969959;28;20030;-76
2024/01/23 04:24:45;;;;;;;11.32;1.65;;;7.50;99.90;;;;;;4985405;28;20073;-75
2024/01/23 04:27:19;;;;;;;11.88;1.60;;;7.60;99.90;;;;;;5003399;28;20026;-75
2024/01/23 04:29:57;;;;;;;10.63;1.90;;;7.60;99.90;;;;;;5002864;28;20109;-76
2024/01/23 04:32:28;;;;;;;12.27;2.43;;;7.70;99.90;;;;;;5003483;28;20041;-75
2024/01/23 04:34:54;;;;;;;10.30;1.70;;;7.60;99.90;;;;;;5003063;28;20323;-76
2024/01/23 04:37:19;;;;;;;12.10;1.48;;;7.50;99.90;;;;;;4985684;28;20076;-77
2024/01/23 04:39:48;;;;;;;8.48;1.52;;;7.50;99.90;;;;;;4997941;28;20114;-76
2024/01/23 04:42:14;;;;;;;8.60;1.17;;;7.50;99.90;;;;;;4983629;28;20054;-76
2024/01/23 04:44:45;;;;;;;11.38;1.48;;;7.50;99.90;;;;;;4983276;28;20081;-77
2024/01/23 04:47:14;;;;;;;18.13;2.47;;;7.50;99.90;;;;;;4983041;28;20022;-77
2024/01/23 04:49:49;;;;;;;9.45;1.30;;;7.40;99.90;;;;;;4982960;28;20093;-77
2024/01/23 04:52:18;;;;;;;10.02;1.63;;;7.40;99.90;;;;;;4983303;28;20344;-77
2024/01/23 04:54:43;;;;;;;12.00;1.60;;;7.30;99.90;;;;;;4982871;28;20034;-76
2024/01/23 04:57:17;;;;;;;14.20;2.17;;;7.30;99.90;;;;;;4982523;28;20089;-76
2024/01/23 04:59:43;;;;;;;8.13;1.48;;;7.30;99.90;;;;;;4996877;28;20221;-76
2024/01/23 05:02:09;;;;;;;8.43;1.45;;;7.30;99.90;;;;;;4983478;28;20030;-75
2024/01/23 05:04:47;;;;;;;10.75;1.67;;;7.30;99.90;;;;;;4982852;28;20376;-76
2024/01/23 05:07:12;;;;;;;5.50;0.98;;;7.30;99.90;;;;;;4983402;28;20035;-76
2024/01/23 05:09:41;;;;;;;10.38;1.10;;;7.30;99.90;;;;;;4982915;28;20073;-77
2024/01/23 05:12:10;;;;;;;6.07;1.00;;;7.20;99.90;;;;;;4985380;28;20065;-76
2024/01/23 05:14:45;;;;;;;6.13;1.00;;;7.20;99.90;;;;;;4986464;28;20042;-76
2024/01/23 05:17:11;;;;;;;5.30;0.70;;;7.10;99.90;;;;;;4987311;28;20030;-76
2024/01/23 05:19:39;;;;;;;4.10;0.80;;;7.10;99.90;;;;;;4987191;28;20061;-75
2024/01/23 05:22:04;;;;;;;;;;;7.10;99.90;;;;;;4987187;28;20038;-78
2024/01/23 05:24:30;;;;;;;7.55;0.82;;;7.10;99.90;;;;;;4986544;28;19908;-78
2024/01/23 05:26:56;;;;;;;5.93;1.15;;;7.00;99.90;;;;;;4970104;28;20113;-76
2024/01/23 05:29:33;;;;;;;4.32;0.73;;;7.00;99.90;;;;;;4985673;28;20058;-75
2024/01/23 05:32:28;;;;;;;4.90;1.03;;;6.90;99.90;;;;;;4986772;28;20061;-76
2024/01/23 05:34:57;;;;;;;4.63;1.10;;;6.90;99.90;;;;;;4985451;28;20034;-76
2024/01/23 05:37:26;;;;;;;7.13;1.30;;;6.90;99.90;;;;;;4986806;28;20038;-74
2024/01/23 05:39:51;;;;;;;7.63;0.88;;;6.90;99.90;;;;;;4992558;28;20046;-76
2024/01/23 05:42:17;;;;;;;5.43;0.80;;;6.80;99.90;;;;;;5006016;28;20081;-77
2024/01/23 05:44:55;;;;;;;7.68;1.08;;;6.70;99.90;;;;;;5004476;28;20087;-75
2024/01/23 05:47:24;;;;;;;5.05;1.15;;;6.70;99.90;;;;;;4988807;28;20040;-76
2024/01/23 05:49:53;;;;;;;6.65;1.38;;;6.70;99.90;;;;;;5004808;28;20038;-75
2024/01/23 05:52:19;;;;;;;7.20;1.77;;;6.70;99.90;;;;;;5004653;28;20041;-75
2024/01/23 05:54:44;;;;;;;9.82;1.10;;;6.70;99.90;;;;;;5004111;28;20025;-76
2024/01/23 05:57:11;;;;;;;5.65;1.00;;;6.70;99.90;;;;;;4979975;28;20046;-76
2024/01/23 05:59:36;;;;;;;6.88;1.73;;;6.70;99.90;;;;;;5024929;28;20080;-76
2024/01/23 06:02:05;;;;;;;9.18;1.52;;;6.70;99.90;;;;;;5025288;28;20320;-76
2024/01/23 06:04:31;;;;;;;6.88;1.27;;;6.70;99.90;;;;;;5018910;28;20084;-75
2024/01/23 06:06:57;;;;;;;4.57;0.80;;;6.70;99.90;;;;;;5025035;28;20042;-75
2024/01/23 06:09:22;;;;;;;6.13;1.00;;;6.60;99.90;;;;;;5008123;28;20037;-73
2024/01/23 06:11:54;;;;;;;8.38;1.25;;;6.60;99.90;;;;;;5024615;28;20041;-74
2024/01/23 06:15:09;;;;;;;5.28;0.80;;;6.60;99.90;;;;;;5025369;28;20029;-75
2024/01/23 06:17:37;;;;;;;7.80;1.27;;;6.50;99.90;;;;;;4969173;28;20072;-76
2024/01/23 06:20:28;;;;;;;;;;;;;;;;;;;;;
2024/01/23 06:23:11;;;;;;;3.70;0.60;;;6.40;99.90;;;;;;5023781;28;20064;-77
2024/01/23 06:25:39;;;;;;;3.65;0.77;;;6.30;99.90;;;;;;5023870;28;20071;-77
2024/01/23 06:28:19;;;;;;;4.95;1.00;;;6.30;99.90;;;;;;5024744;28;20037;-77
2024/01/23 06:31:14;;;;;;;4.25;0.75;;;6.30;99.90;;;;;;5024559;28;20101;-78
2024/01/23 06:33:46;;;;;;;4.20;0.60;;;6.30;99.90;;;;;;5002407;28;20050;-78
2024/01/23 06:36:18;;;;;;;3.58;0.63;;;6.40;99.90;;;;;;5023629;28;20057;-77
2024/01/23 06:38:44;;;;;;;4.10;0.50;;;6.40;99.90;;;;;;5024229;28;20049;-78
2024/01/23 06:41:11;;;;;;;5.47;0.90;;;6.30;99.90;;;;;;5006969;28;20034;-76
2024/01/23 06:43:57;;;;;;;3.25;0.60;;;6.40;99.90;;;;;;5024815;28;20034;-77
2024/01/23 06:46:42;;;;;;;3.65;0.60;;;6.30;99.90;;;;;;5007524;28;20033;-77
2024/01/23 06:49:10;;;;;;;2.22;0.45;;;6.20;99.90;;;;;;5023858;28;20347;-78
2024/01/23 06:51:36;;;;;;;;;;;6.20;99.90;;;;;;5022906;28;20041;-74
2024/01/23 06:54:02;;;;;;;2.97;0.50;;;6.10;99.90;;;;;;5023793;28;20192;-77
2024/01/23 06:56:31;;;;;;;5.20;0.75;;;6.00;99.90;;;;;;4982939;28;20053;-75
2024/01/23 06:58:56;;;;;;;4.85;0.80;;;5.90;99.90;;;;;;5013065;28;20097;-77
2024/01/23 07:01:35;;;;;;;5.97;0.60;;;5.90;99.90;;;;;;5023385;28;20034;-75
2024/01/23 07:04:29;;;;;;;4.85;0.85;;;5.90;99.90;;;;;;5024574;28;20320;-76
2024/01/23 07:06:58;;;;;;;4.15;0.82;;;5.80;99.90;;;;;;5001215;28;20046;-76
2024/01/23 07:09:27;;;;;;;5.90;0.50;;;5.70;99.90;;;;;;5005264;28;20256;-77
2024/01/23 07:11:56;;;;;;;2.88;0.63;;;5.60;99.90;;;;;;5013946;28;20052;-77
2024/01/23 07:14:25;;;;;;;3.97;0.70;;;5.50;99.90;;;;;;5008198;28;20022;-75
2024/01/23 07:16:53;;;;;;;4.63;0.93;;;5.40;99.90;;;;;;5003479;28;20026;-77
2024/01/23 07:19:22;;;;;;;2.88;0.40;;;5.40;99.90;;;;;;5003190;28;20045;-76
2024/01/23 07:21:54;;;;;;;3.78;0.65;;;5.30;99.90;;;;;;5002838;28;20340;-77
2024/01/23 07:24:23;;;;;;;4.10;0.50;;;5.30;99.90;;;;;;4994308;28;20038;-77
2024/01/23 07:26:54;;;;;;;3.65;0.85;;;5.30;99.90;;;;;;5001943;28;20048;-76
2024/01/23 07:29:32;;;;;;;3.35;0.70;;;5.30;99.90;;;;;;5021465;28;20033;-77
2024/01/23 07:31:58;;;;;;;5.05;0.75;;;5.30;99.90;;;;;;5022283;28;20025;-77
2024/01/23 07:34:24;;;;;;;4.60;1.10;;;5.30;99.90;;;;;;5005952;28;20041;-76
2024/01/23 07:36:50;;;;;;;4.03;0.80;;;5.30;99.90;;;;;;5005945;28;20100;-76
2024/01/23 07:39:19;;;;;;;2.83;1.08;;;5.30;99.90;;;;;;5023325;28;20033;-76
2024/01/23 07:41:55;;;;;;;5.63;0.70;;;5.30;99.90;;;;;;4982837;28;20034;-76
2024/01/23 07:44:23;;;;;;;4.32;0.80;;;5.20;99.90;;;;;;5002692;28;20054;-76
2024/01/23 07:46:58;;;;;;;5.95;0.90;;;5.30;99.90;;;;;;4985276;28;20022;-75
2024/01/23 07:49:24;;;;;;;4.70;0.93;;;5.30;99.90;;;;;;4985948;28;20321;-76
2024/01/23 07:51:50;;;;;;;5.03;0.75;;;5.20;99.90;;;;;;4983489;28;20030;-76
2024/01/23 07:54:16;;;;;;;6.38;0.80;;;5.20;99.90;;;;;;5003331;28;20033;-76
2024/01/23 07:56:42;;;;;;;6.45;1.10;;;5.20;99.90;;;;;;4989719;28;20340;-76
2024/01/23 07:59:08;;;;;;;6.93;1.33;;;5.30;99.90;;;;;;5005323;28;20041;-74
2024/01/23 08:01:34;;;;;;;3.92;0.60;;;5.30;99.90;;;;;;4986215;28;20061;-77
2024/01/23 08:04:03;;;;;;;6.85;1.00;;;5.40;99.90;;;;;;5003726;28;20143;-80
2024/01/23 08:06:42;;;;;;;6.13;0.85;;;5.50;99.90;;;;;;4992449;28;20049;-77
2024/01/23 08:09:08;;;;;;;6.15;0.75;;;5.60;99.90;;;;;;5003788;28;20224;-79
2024/01/23 08:11:50;;;;;;;7.70;1.02;;;5.60;99.90;;;;;;5001631;28;20041;-79
2024/01/23 08:14:15;;;;;;;6.80;1.13;;;5.70;99.90;;;;;;5003462;28;20022;-74
2024/01/23 08:16:44;;;;;;;4.25;0.90;;;5.80;99.90;;;;;;5002602;28;20026;-74
2024/01/23 08:19:10;;;;;;;7.18;1.65;;;5.70;99.90;;;;;;5003259;28;20018;-74
2024/01/23 08:21:38;;;;;;;5.70;1.00;;;5.70;99.90;;;;;;5002637;28;20109;-74
2024/01/23 08:24:08;;;;;;;6.07;1.20;;;5.70;99.90;;;;;;5003341;28;20171;-76
2024/01/23 08:26:34;;;;;;;5.93;0.93;;;5.70;99.90;;;;;;5001669;28;20026;-75
2024/01/23 08:29:03;;;;;;;6.28;1.20;;;5.70;99.90;;;;;;5002692;28;20026;-74
2024/01/23 08:31:32;;;;;;;5.32;1.35;;;5.80;99.90;;;;;;5002409;28;20052;-73
2024/01/23 08:33:58;;;;;;;6.05;1.00;;;5.90;99.90;;;;;;5003046;28;20045;-75
2024/01/23 08:36:23;;;;;;;4.68;1.00;;;6.00;99.90;;;;;;5003389;28;20050;-74
2024/01/23 08:38:49;;;;;;;3.33;0.90;;;6.10;99.90;;;;;;5002549;28;20308;-74
2024/01/23 08:41:15;;;;;;;6.15;1.02;;;6.10;99.90;;;;;;5019012;28;20062;-73
2024/01/23 08:43:40;;;;;;;3.63;0.95;;;6.20;99.90;;;;;;5021760;28;20090;-76
2024/01/23 08:46:06;;;;;;;6.50;0.90;;;6.20;99.90;;;;;;5019942;28;20367;-73
2024/01/23 08:48:32;;;;;;;5.90;1.10;;;6.20;99.90;;;;;;5021915;28;20388;-74
2024/01/23 08:50:57;;;;;;;7.22;1.13;;;6.20;99.90;;;;;;5022145;28;20037;-74
2024/01/23 08:53:23;;;;;;;6.85;1.08;;;6.30;99.90;;;;;;5022279;28;20331;-74
2024/01/23 08:55:49;;;;;;;6.55;1.75;;;6.30;99.90;;;;;;5022121;28;20216;-74
2024/01/23 08:58:23;;;;;;;5.07;1.10;;;6.30;99.90;;;;;;5034759;28;20048;-75
2024/01/23 09:00:48;;;;;;;5.18;0.82;;;6.30;99.90;;;;;;5027454;28;20055;-75
2024/01/23 09:03:17;;;;;;;7.07;1.25;;;6.40;99.90;;;;;;4988733;28;20037;-76
2024/01/23 09:05:43;;;;;;;7.00;0.95;;;6.40;99.90;;;;;;5021817;28;20228;-74
2024/01/23 09:08:08;;;;;;;7.10;1.50;;;6.30;99.90;;;;;;5022443;28;20041;-73
2024/01/23 09:10:34;;;;;;;6.57;1.00;;;6.40;99.90;;;;;;5003847;28;20033;-73
2024/01/23 09:13:00;;;;;;;8.23;1.38;;;6.40;99.90;;;;;;5021764;28;20117;-73
2024/01/23 09:15:29;;;;;;;8.25;1.70;;;6.50;99.90;;;;;;5004672;28;20033;-74
2024/01/23 09:20:44;;;;;;;3.30;0.80;;;6.70;99.90;;;;;;5014679;28;20371;-74
2024/01/23 09:23:18;;;;;;;5.38;1.02;;;6.80;99.90;;;;;;5022155;28;20025;-75
2024/01/23 09:25:44;;;;;;;4.10;0.93;;;6.80;99.90;;;;;;4988169;28;20022;-75
2024/01/23 09:28:10;;;;;;;5.50;1.00;;;7.00;99.90;;;;;;5004115;28;20045;-76
2024/01/23 09:30:35;;;;;;;3.70;0.70;;;7.00;99.90;;;;;;5020230;28;20038;-75
2024/01/23 09:33:02;;;;;;;7.13;0.93;;;7.10;99.90;;;;;;5005166;28;20240;-76
2024/01/23 09:35:32;;;;;;;7.03;1.35;;;7.10;99.90;;;;;;4987698;28;20133;-76
2024/01/23 09:37:59;;;;;;;5.45;1.42;;;7.10;99.90;;;;;;5004628;28;20307;-77
2024/01/23 09:40:37;;;;;;;6.55;1.10;;;7.30;99.90;;;;;;5012514;28;20084;-74
2024/01/23 09:43:03;;;;;;;2.80;0.80;;;7.40;99.90;;;;;;5001224;28;20095;-77
2024/01/23 09:45:29;;;;;;;4.13;0.90;;;7.40;99.90;;;;;;4983577;28;20088;-75
2024/01/23 09:47:55;;;;;;;2.00;0.75;;;7.50;99.90;;;;;;5002020;28;20018;-76
2024/01/23 09:50:31;;;;;;;3.15;0.80;;;7.40;99.90;;;;;;4985111;28;20316;-76
2024/01/23 09:52:59;;;;;;;4.82;0.85;;;7.40;99.90;;;;;;5001675;28;20038;-76
2024/01/23 09:55:25;;;;;;;4.30;0.95;;;7.50;99.90;;;;;;5002284;28;20035;-74
2024/01/23 09:57:51;;;;;;;3.50;0.70;;;7.60;99.90;;;;;;5013163;28;20048;-75
2024/01/23 10:00:18;;;;;;;5.35;0.75;;;7.70;99.90;;;;;;5014525;28;20343;-76
2024/01/23 10:02:44;;;;;;;2.05;0.60;;;7.80;99.90;;;;;;5004916;28;20105;-76
2024/01/23 10:05:12;;;;;;;3.92;0.60;;;7.80;99.90;;;;;;5005607;28;20216;-75
2024/01/23 10:07:38;;;;;;;5.03;0.60;;;7.70;99.90;;;;;;5004937;28;20041;-76
2024/01/23 10:10:20;;;;;;;2.65;0.40;;;7.70;99.90;;;;;;5004600;28;20129;-75
2024/01/23 10:12:49;;;;;;;2.75;0.45;;;7.70;99.90;;;;;;5004964;28;20039;-76
2024/01/23 10:15:18;;;;;;;1.50;0.40;;;7.60;99.90;;;;;;5005661;28;20026;-76
2024/01/23 10:17:53;;;;;;;3.30;0.55;;;7.50;99.90;;;;;;5005080;28;20113;-76
2024/01/23 10:20:22;;;;;;;3.17;0.70;;;7.60;99.90;;;;;;4972289;28;20026;-77
2024/01/23 10:22:53;;;;;;;3.83;1.17;;;7.80;99.90;;;;;;4987597;28;20045;-77
2024/01/23 10:25:21;;;;;;;5.07;0.68;;;8.10;99.90;;;;;;5005302;28;20049;-75
2024/01/23 10:27:52;;;;;;;5.00;0.95;;;8.40;99.90;;;;;;4986640;28;20093;-75
2024/01/23 10:30:17;;;;;;;4.47;0.57;;;8.40;99.90;;;;;;5005152;28;20053;-75
2024/01/23 10:32:44;;;;;;;5.28;1.13;;;8.30;99.90;;;;;;4988559;28;20093;-76
2024/01/23 10:35:13;;;;;;;4.57;0.90;;;8.30;99.90;;;;;;5005238;28;20038;-75
2024/01/23 10:37:40;;;;;;;4.05;0.70;;;8.30;99.90;;;;;;5004260;28;20034;-77
2024/01/23 10:40:10;;;;;;;6.22;1.48;;;8.60;99.90;;;;;;5004678;28;20050;-75
2024/01/23 10:42:36;;;;;;;5.53;1.58;;;8.80;99.90;;;;;;5005093;28;20038;-78
2024/01/23 10:45:04;;;;;;;6.00;0.80;;;9.00;99.90;;;;;;4971836;28;20026;-77
2024/01/23 10:47:30;;;;;;;6.85;1.08;;;9.20;99.90;;;;;;4986700;28;20030;-76
2024/01/23 10:49:56;;;;;;;4.82;1.10;;;9.30;99.90;;;;;;4987269;28;20038;-77
2024/01/23 10:52:30;;;;;;;8.45;1.10;;;9.40;99.90;;;;;;4979464;28;20037;-73
2024/01/23 10:55:04;;;;;;;6.25;1.20;;;9.50;99.90;;;;;;5002747;28;20030;-74
2024/01/23 10:57:37;;;;;;;6.57;1.10;;;9.50;99.90;;;;;;4972125;28;20022;-76
2024/01/23 11:00:05;;;;;;;4.60;1.25;;;9.40;99.90;;;;;;5004196;28;20042;-73
2024/01/23 11:02:37;;;;;;;6.50;1.53;;;9.30;99.90;;;;;;4997957;28;20260;-75
2024/01/23 11:05:05;;;;;;;6.25;1.10;;;9.20;99.90;;;;;;5013837;28;20186;-75
2024/01/23 11:07:45;;;;;;;7.18;1.73;;;9.10;99.90;;;;;;4986473;28;20220;-73
2024/01/23 11:10:36;;;;;;;4.55;1.00;;;9.10;99.90;;;;;;5003745;28;20097;-74
2024/01/23 11:13:38;;;;;;;5.85;1.20;;;9.10;99.90;;;;;;5001820;28;20030;-76
2024/01/23 11:16:08;;;;;;;6.72;1.30;;;9.30;99.80;;;;;;4967774;28;20039;-76
2024/01/23 11:18:34;;;;;;;7.55;1.05;;;9.60;99.00;;;;;;4983172;28;20058;-74
2024/01/23 11:21:09;;;;;;;8.40;1.10;;;9.70;98.90;;;;;;4967281;28;20039;-76
2024/01/23 11:23:39;;;;;;;9.68;1.95;;;9.70;97.70;;;;;;4997622;28;20114;-74
2024/01/23 11:26:19;;;;;;;5.43;1.00;;;9.60;97.20;;;;;;4987002;28;20038;-74
2024/01/23 11:28:59;;;;;;;5.32;1.50;;;9.60;97.50;;;;;;4987678;28;20046;-73
2024/01/23 11:31:56;;;;;;;9.35;1.35;;;9.40;97.40;;;;;;4990508;28;20249;-75
2024/01/23 11:34:27;;;;;;;7.70;1.50;;;9.40;96.50;;;;;;5002015;28;20350;-79
2024/01/23 11:37:23;;;;;;;8.55;1.42;;;9.40;96.80;;;;;;5002637;28;20050;-76
2024/01/23 11:39:51;;;;;;;8.82;1.77;;;9.30;96.40;;;;;;4981212;28;20049;-73
2024/01/23 11:42:18;;;;;;;10.88;1.48;;;9.30;96.40;;;;;;5023374;28;20044;-76
2024/01/23 11:44:47;;;;;;;7.78;1.52;;;9.30;94.30;;;;;;5022610;28;20033;-74
2024/01/23 11:47:15;;;;;;;12.05;1.73;;;9.20;94.40;;;;;;5023178;28;20022;-76
2024/01/23 11:49:44;;;;;;;11.70;2.17;;;9.10;94.10;;;;;;5022321;28;20168;-75
2024/01/23 11:52:25;;;;;;;11.23;1.70;;;9.80;92.70;;;;;;4996957;28;20018;-75
2024/01/23 11:54:51;;;;;;;5.32;1.38;;;10.10;91.70;;;;;;5001154;28;20041;-74
2024/01/23 11:57:20;;;;;;;6.55;1.20;;;10.70;90.60;;;;;;5012125;28;20084;-73
2024/01/23 11:59:45;;;;;;;8.85;1.73;;;11.00;90.10;;;;;;5002577;28;20032;-74
2024/01/23 12:02:14;;;;;;;5.68;1.33;;;11.60;89.20;;;;;;5022991;28;20105;-77
2024/01/23 12:04:39;;;;;;;5.97;1.25;;;12.20;85.80;;;;;;5022615;28;20038;-76
2024/01/23 12:07:08;;;;;;;9.65;1.67;;;12.60;83.40;;;;;;5004625;28;20335;-77
2024/01/23 12:09:34;;;;;;;5.80;1.20;;;13.60;84.00;;;;;;5005064;28;20308;-76
2024/01/23 12:12:03;;;;;;;5.40;1.35;;;14.90;78.60;;;;;;4988796;28;20025;-78
2024/01/23 12:14:29;;;;;;;10.00;1.85;;;15.60;76.10;;;;;;5004623;28;20055;-76
2024/01/23 12:17:04;;;;;;;6.60;1.52;;;15.90;75.50;;;;;;5022863;28;20029;-77
2024/01/23 12:19:48;;;;;;;6.25;1.65;;;15.80;73.80;;;;;;5021506;28;20026;-73
2024/01/23 12:22:15;;;;;;;7.55;1.70;;;15.10;72.50;;;;;;5022877;28;20061;-75
2024/01/23 12:24:46;;;;;;;6.70;1.48;;;14.30;74.10;;;;;;5021899;28;20089;-74
2024/01/23 12:27:12;;;;;;;11.73;2.15;;;13.60;76.00;;;;;;5021829;28;20022;-73
2024/01/23 12:29:40;;;;;;;8.45;1.58;;;12.80;78.30;;;;;;5021652;28;20229;-74
2024/01/23 12:32:15;;;;;;;8.05;1.95;;;12.60;80.90;;;;;;5023381;28;20029;-71
2024/01/23 12:34:40;;;;;;;10.77;2.65;;;12.60;80.20;;;;;;5021842;28;20036;-75
2024/01/23 12:37:09;;;;;;;10.25;2.13;;;12.50;80.60;;;;;;5022254;28;20030;-74
2024/01/23 12:39:42;;;;;;;8.18;1.88;;;13.10;80.10;;;;;;5019133;28;20185;-76
2024/01/23 12:42:07;;;;;;;7.75;1.60;;;13.40;78.00;;;;;;5001904;28;20039;-74
2024/01/23 12:44:33;;;;;;;6.38;1.73;;;13.30;77.50;;;;;;5001821;28;20038;-72
2024/01/23 12:47:09;;;;;;;6.20;1.48;;;14.20;77.20;;;;;;5002735;28;20023;-73
2024/01/23 12:49:37;;;;;;;7.82;1.60;;;15.10;74.50;;;;;;5001994;28;20029;-74
2024/01/23 12:52:12;;;;;;;9.65;2.30;;;15.80;73.40;;;;;;5001416;28;20037;-75
2024/01/23 12:54:39;;;;;;;6.05;1.45;;;16.00;72.00;;;;;;5002334;28;20034;-75
2024/01/23 12:57:06;;;;;;;7.07;1.58;;;15.60;72.80;;;;;;5005100;28;20091;-74
2024/01/23 12:59:32;;;;;;;7.60;1.60;;;14.90;72.90;;;;;;5017637;28;20327;-73
2024/01/23 13:01:58;;;;;;;6.10;1.70;;;14.60;74.20;;;;;;5001695;28;20061;-73
2024/01/23 13:04:24;;;;;;;6.40;1.30;;;13.90;75.80;;;;;;5001219;28;20027;-72
2024/01/23 13:06:49;;;;;;;6.45;1.50;;;14.00;76.50;;;;;;5001821;28;20022;-74
2024/01/23 13:09:24;;;;;;;6.43;1.40;;;13.50;77.90;;;;;;4981592;28;20230;-73
2024/01/23 13:11:53;;;;;;;8.48;1.50;;;12.90;79.10;;;;;;4999156;28;20081;-73
2024/01/23 13:14:26;;;;;;;9.63;1.55;;;12.10;81.10;;;;;;4969198;28;20149;-74
2024/01/23 13:16:52;;;;;;;9.50;1.58;;;11.90;82.20;;;;;;4968774;28;20105;-75
2024/01/23 13:19:21;;;;;;;9.35;1.98;;;11.60;84.00;;;;;;4985050;28;20034;-73
2024/01/23 13:21:50;;;;;;;9.35;1.88;;;11.20;84.50;;;;;;5001712;28;20047;-74
2024/01/23 13:24:16;;;;;;;8.02;1.48;;;10.70;86.00;;;;;;5002410;28;20035;-73